sensor_id;sensor_type;location;lat;lon;timestamp;P1;durP1;ratioP1;P2;durP2;ratioP2
56760;SDS011;42633;44.494;11.356;2022-10-16T15:57:09;11.52;;;9.20;;
56760;SDS011;42633;44.494;11.356;2022-10-16T16:00:36;12.13;;;7.50;;
56760;SDS011;42633;44.494;11.356;2022-10-16T16:04:25;18.67;;;9.82;;
56760;SDS011;42633;44.494;11.356;2022-10-16T16:07:40;12.40;;;8.45;;
56760;SDS011;42633;44.494;11.356;2022-10-16T16:10:45;13.10;;;9.52;;
56760;SDS011;42633;44.494;11.356;2022-10-16T16:14:14;17.85;;;10.10;;
56760;SDS011;42633;44.494;11.356;2022-10-16T16:17:19;13.57;;;9.43;;
56760;SDS011;42633;44.494;11.356;2022-10-16T16:20:23;12.02;;;9.07;;
56760;SDS011;42633;44.494;11.356;2022-10-16T16:23:28;13.15;;;9.85;;
56760;SDS011;42633;44.494;11.356;2022-10-16T16:26:34;15.30;;;10.15;;
56760;SDS011;42633;44.494;11.356;2022-10-16T16:29:45;18.55;;;13.70;;
56760;SDS011;42633;44.494;11.356;2022-10-16T16:32:50;15.93;;;11.75;;
56760;SDS011;42633;44.494;11.356;2022-10-16T16:35:57;14.88;;;10.77;;
56760;SDS011;42633;44.494;11.356;2022-10-16T16:39:06;13.93;;;11.20;;
56760;SDS011;42633;44.494;11.356;2022-10-16T16:42:12;12.73;;;9.88;;
56760;SDS011;42633;44.494;11.356;2022-10-16T16:45:16;13.18;;;10.82;;
56760;SDS011;42633;44.494;11.356;2022-10-16T16:48:22;13.55;;;9.80;;
56760;SDS011;42633;44.494;11.356;2022-10-16T16:51:26;15.07;;;10.55;;
56760;SDS011;42633;44.494;11.356;2022-10-16T16:54:32;16.80;;;11.43;;
56760;SDS011;42633;44.494;11.356;2022-10-16T16:57:43;14.85;;;9.32;;
56760;SDS011;42633;44.494;11.356;2022-10-16T17:00:48;16.10;;;10.52;;
56760;SDS011;42633;44.494;11.356;2022-10-16T17:03:53;15.20;;;10.00;;
56760;SDS011;42633;44.494;11.356;2022-10-16T17:07:01;17.70;;;11.38;;
56760;SDS011;42633;44.494;11.356;2022-10-16T17:10:07;20.20;;;11.73;;
56760;SDS011;42633;44.494;11.356;2022-10-16T17:13:16;14.35;;;9.43;;
56760;SDS011;42633;44.494;11.356;2022-10-16T17:16:20;16.27;;;9.57;;
56760;SDS011;42633;44.494;11.356;2022-10-16T17:19:29;12.20;;;8.88;;
56760;SDS011;42633;44.494;11.356;2022-10-16T17:22:33;18.52;;;10.40;;
56760;SDS011;42633;44.494;11.356;2022-10-16T17:25:40;16.65;;;10.02;;
56760;SDS011;42633;44.494;11.356;2022-10-16T17:28:45;23.23;;;10.32;;
56760;SDS011;42633;44.494;11.356;2022-10-16T17:31:50;19.73;;;10.65;;
56760;SDS011;42633;44.494;11.356;2022-10-16T17:35:00;15.45;;;9.60;;
56760;SDS011;42633;44.494;11.356;2022-10-16T17:38:05;20.88;;;10.75;;
56760;SDS011;42633;44.494;11.356;2022-10-16T17:41:19;17.05;;;12.00;;
56760;SDS011;42633;44.494;11.356;2022-10-16T17:44:26;16.80;;;12.32;;
56760;SDS011;42633;44.494;11.356;2022-10-16T17:47:33;30.38;;;15.10;;
56760;SDS011;42633;44.494;11.356;2022-10-16T17:50:41;21.77;;;14.07;;
56760;SDS011;42633;44.494;11.356;2022-10-16T17:53:48;20.23;;;12.35;;
56760;SDS011;42633;44.494;11.356;2022-10-16T17:56:55;25.50;;;15.73;;
56760;SDS011;42633;44.494;11.356;2022-10-16T18:00:00;17.70;;;14.20;;
56760;SDS011;42633;44.494;11.356;2022-10-16T18:03:09;20.63;;;13.52;;
56760;SDS011;42633;44.494;11.356;2022-10-16T18:06:14;24.27;;;15.27;;
56760;SDS011;42633;44.494;11.356;2022-10-16T18:09:19;21.38;;;14.38;;
56760;SDS011;42633;44.494;11.356;2022-10-16T18:12:24;17.80;;;13.38;;
56760;SDS011;42633;44.494;11.356;2022-10-16T18:15:28;20.55;;;14.35;;
56760;SDS011;42633;44.494;11.356;2022-10-16T18:18:38;19.85;;;14.02;;
56760;SDS011;42633;44.494;11.356;2022-10-16T18:21:43;19.80;;;12.70;;
56760;SDS011;42633;44.494;11.356;2022-10-16T18:24:48;21.77;;;13.40;;
56760;SDS011;42633;44.494;11.356;2022-10-16T18:27:55;20.38;;;15.07;;
56760;SDS011;42633;44.494;11.356;2022-10-16T18:31:02;24.10;;;15.13;;
56760;SDS011;42633;44.494;11.356;2022-10-16T18:34:29;28.48;;;20.25;;
56760;SDS011;42633;44.494;11.356;2022-10-16T18:37:41;27.75;;;23.48;;
56760;SDS011;42633;44.494;11.356;2022-10-16T18:40:48;39.33;;;25.67;;
56760;SDS011;42633;44.494;11.356;2022-10-16T18:43:53;36.20;;;27.88;;
56760;SDS011;42633;44.494;11.356;2022-10-16T18:47:02;53.33;;;40.10;;
56760;SDS011;42633;44.494;11.356;2022-10-16T18:50:07;58.65;;;45.35;;
56760;SDS011;42633;44.494;11.356;2022-10-16T18:53:13;37.35;;;28.88;;
56760;SDS011;42633;44.494;11.356;2022-10-16T18:56:22;54.85;;;40.45;;
56760;SDS011;42633;44.494;11.356;2022-10-16T18:59:35;35.85;;;25.55;;
56760;SDS011;42633;44.494;11.356;2022-10-16T19:02:43;41.85;;;32.33;;
56760;SDS011;42633;44.494;11.356;2022-10-16T19:05:49;65.85;;;49.45;;
56760;SDS011;42633;44.494;11.356;2022-10-16T19:08:55;42.13;;;31.13;;
56760;SDS011;42633;44.494;11.356;2022-10-16T19:12:00;32.78;;;24.80;;
56760;SDS011;42633;44.494;11.356;2022-10-16T19:15:10;31.08;;;19.55;;
56760;SDS011;42633;44.494;11.356;2022-10-16T19:18:15;19.73;;;13.95;;
56760;SDS011;42633;44.494;11.356;2022-10-16T19:21:20;18.17;;;13.98;;
56760;SDS011;42633;44.494;11.356;2022-10-16T19:24:25;20.00;;;13.03;;
56760;SDS011;42633;44.494;11.356;2022-10-16T19:27:29;17.38;;;13.05;;
56760;SDS011;42633;44.494;11.356;2022-10-16T19:30:35;18.50;;;12.60;;
56760;SDS011;42633;44.494;11.356;2022-10-16T19:33:44;18.17;;;12.75;;
56760;SDS011;42633;44.494;11.356;2022-10-16T19:37:00;19.05;;;12.60;;
56760;SDS011;42633;44.494;11.356;2022-10-16T19:40:06;18.13;;;12.73;;
56760;SDS011;42633;44.494;11.356;2022-10-16T19:43:21;18.20;;;13.13;;
56760;SDS011;42633;44.494;11.356;2022-10-16T19:46:26;16.17;;;13.02;;
56760;SDS011;42633;44.494;11.356;2022-10-16T19:49:31;19.60;;;12.10;;
56760;SDS011;42633;44.494;11.356;2022-10-16T19:52:36;18.42;;;13.13;;
56760;SDS011;42633;44.494;11.356;2022-10-16T19:55:42;17.33;;;11.95;;
56760;SDS011;42633;44.494;11.356;2022-10-16T19:58:47;17.83;;;11.88;;
56760;SDS011;42633;44.494;11.356;2022-10-16T20:05:52;15.93;;;12.25;;
56760;SDS011;42633;44.494;11.356;2022-10-16T20:08:58;18.50;;;13.00;;
56760;SDS011;42633;44.494;11.356;2022-10-16T20:12:02;18.35;;;12.88;;
56760;SDS011;42633;44.494;11.356;2022-10-16T20:15:07;15.70;;;11.73;;
56760;SDS011;42633;44.494;11.356;2022-10-16T20:18:15;19.70;;;11.38;;
56760;SDS011;42633;44.494;11.356;2022-10-16T20:21:28;20.13;;;12.90;;
56760;SDS011;42633;44.494;11.356;2022-10-16T20:24:39;16.95;;;13.23;;
56760;SDS011;42633;44.494;11.356;2022-10-16T20:27:47;16.33;;;11.90;;
56760;SDS011;42633;44.494;11.356;2022-10-16T20:30:53;18.60;;;12.82;;
56760;SDS011;42633;44.494;11.356;2022-10-16T20:34:00;23.88;;;14.75;;
56760;SDS011;42633;44.494;11.356;2022-10-16T20:37:08;19.92;;;14.02;;
56760;SDS011;42633;44.494;11.356;2022-10-16T20:40:14;18.45;;;13.73;;
56760;SDS011;42633;44.494;11.356;2022-10-16T20:43:19;29.35;;;15.40;;
56760;SDS011;42633;44.494;11.356;2022-10-16T20:46:25;44.33;;;20.15;;
56760;SDS011;42633;44.494;11.356;2022-10-16T20:49:44;30.05;;;16.63;;
56760;SDS011;42633;44.494;11.356;2022-10-16T20:52:49;25.60;;;15.70;;
56760;SDS011;42633;44.494;11.356;2022-10-16T20:55:54;28.05;;;16.42;;
56760;SDS011;42633;44.494;11.356;2022-10-16T20:59:03;30.80;;;16.17;;
56760;SDS011;42633;44.494;11.356;2022-10-16T21:02:11;25.40;;;16.10;;
56760;SDS011;42633;44.494;11.356;2022-10-16T21:05:19;27.48;;;16.02;;
56760;SDS011;42633;44.494;11.356;2022-10-16T21:08:26;23.73;;;16.08;;
56760;SDS011;42633;44.494;11.356;2022-10-16T21:11:37;24.73;;;16.13;;
56760;SDS011;42633;44.494;11.356;2022-10-16T21:18:07;25.85;;;16.88;;
56760;SDS011;42633;44.494;11.356;2022-10-16T21:21:20;24.58;;;14.77;;
56760;SDS011;42633;44.494;11.356;2022-10-16T21:24:29;25.58;;;16.80;;
56760;SDS011;42633;44.494;11.356;2022-10-16T21:27:37;18.73;;;13.40;;
56760;SDS011;42633;44.494;11.356;2022-10-16T21:30:46;21.52;;;13.57;;
56760;SDS011;42633;44.494;11.356;2022-10-16T21:33:51;17.13;;;12.48;;
56760;SDS011;42633;44.494;11.356;2022-10-16T21:36:57;15.75;;;11.13;;
56760;SDS011;42633;44.494;11.356;2022-10-16T21:40:05;17.40;;;12.70;;
56760;SDS011;42633;44.494;11.356;2022-10-16T21:43:10;18.83;;;12.80;;
56760;SDS011;42633;44.494;11.356;2022-10-16T21:46:16;17.00;;;12.73;;
56760;SDS011;42633;44.494;11.356;2022-10-16T21:49:22;15.68;;;12.48;;
56760;SDS011;42633;44.494;11.356;2022-10-16T21:52:30;15.60;;;12.05;;
56760;SDS011;42633;44.494;11.356;2022-10-16T21:55:36;21.15;;;13.02;;
56760;SDS011;42633;44.494;11.356;2022-10-16T21:58:42;26.10;;;14.93;;
56760;SDS011;42633;44.494;11.356;2022-10-16T22:01:47;20.85;;;14.65;;
56760;SDS011;42633;44.494;11.356;2022-10-16T22:04:55;18.70;;;12.30;;
56760;SDS011;42633;44.494;11.356;2022-10-16T22:08:00;16.65;;;12.48;;
56760;SDS011;42633;44.494;11.356;2022-10-16T22:11:08;18.42;;;11.73;;
56760;SDS011;42633;44.494;11.356;2022-10-16T22:14:17;16.80;;;11.25;;
56760;SDS011;42633;44.494;11.356;2022-10-16T22:17:23;13.90;;;9.93;;
56760;SDS011;42633;44.494;11.356;2022-10-16T22:20:31;12.10;;;9.57;;
56760;SDS011;42633;44.494;11.356;2022-10-16T22:23:41;13.65;;;9.43;;
56760;SDS011;42633;44.494;11.356;2022-10-16T22:26:46;12.23;;;10.30;;
56760;SDS011;42633;44.494;11.356;2022-10-16T22:29:51;13.25;;;9.38;;
56760;SDS011;42633;44.494;11.356;2022-10-16T22:32:57;13.45;;;10.77;;
56760;SDS011;42633;44.494;11.356;2022-10-16T22:36:02;15.80;;;9.80;;
56760;SDS011;42633;44.494;11.356;2022-10-16T22:39:10;12.15;;;9.07;;
56760;SDS011;42633;44.494;11.356;2022-10-16T22:42:17;14.63;;;9.32;;
56760;SDS011;42633;44.494;11.356;2022-10-16T22:45:21;12.40;;;9.15;;
56760;SDS011;42633;44.494;11.356;2022-10-16T22:48:30;12.90;;;8.98;;
56760;SDS011;42633;44.494;11.356;2022-10-16T22:51:58;13.40;;;9.73;;
56760;SDS011;42633;44.494;11.356;2022-10-16T22:55:03;13.45;;;9.00;;
56760;SDS011;42633;44.494;11.356;2022-10-16T22:58:09;11.18;;;8.30;;
56760;SDS011;42633;44.494;11.356;2022-10-16T23:01:17;12.38;;;9.77;;
56760;SDS011;42633;44.494;11.356;2022-10-16T23:04:30;14.95;;;9.32;;
56760;SDS011;42633;44.494;11.356;2022-10-16T23:07:36;9.90;;;8.88;;
56760;SDS011;42633;44.494;11.356;2022-10-16T23:10:41;12.82;;;9.20;;
56760;SDS011;42633;44.494;11.356;2022-10-16T23:13:47;13.82;;;8.48;;
56760;SDS011;42633;44.494;11.356;2022-10-16T23:16:54;15.18;;;9.80;;
56760;SDS011;42633;44.494;11.356;2022-10-16T23:20:02;17.30;;;10.70;;
56760;SDS011;42633;44.494;11.356;2022-10-16T23:23:11;21.27;;;9.32;;
56760;SDS011;42633;44.494;11.356;2022-10-16T23:26:18;13.93;;;10.32;;
56760;SDS011;42633;44.494;11.356;2022-10-16T23:34:02;13.07;;;10.10;;
56760;SDS011;42633;44.494;11.356;2022-10-16T23:37:09;15.93;;;10.20;;
56760;SDS011;42633;44.494;11.356;2022-10-16T23:40:16;13.13;;;9.45;;
56760;SDS011;42633;44.494;11.356;2022-10-16T23:46:41;16.90;;;11.13;;
56760;SDS011;42633;44.494;11.356;2022-10-16T23:50:06;15.60;;;10.93;;
56760;SDS011;42633;44.494;11.356;2022-10-16T23:53:10;16.27;;;10.05;;
56760;SDS011;42633;44.494;11.356;2022-10-16T23:56:17;14.35;;;10.65;;
56760;SDS011;42633;44.494;11.356;2022-10-16T23:59:23;14.00;;;10.40;;
